Time;durP1;ratioP1;P1;durP2;ratioP2;P2;SDS_P1;SDS_P2;PMS_P1;PMS_P2;Temp;Humidity;BMP_temperature;BMP_pressure;BME280_temperature;BME280_humidity;BME280_pressure;Samples;Min_cycle;Max_cycle;Signal;HPM_P1;HPM_P2
2023/05/29 00:00:32;;;;;;;4.22;2.90;;;11.00;99.90;;;;;;4974027;28;20179;-85
2023/05/29 00:02:58;;;;;;;5.07;3.25;;;11.00;99.90;;;;;;4975043;28;20175;-85
2023/05/29 00:05:24;;;;;;;9.50;3.38;;;;;;;;;;4973849;28;20218;-85
2023/05/29 00:07:50;;;;;;;5.72;3.28;;;10.60;99.90;;;;;;4974602;28;20179;-84
2023/05/29 00:10:16;;;;;;;12.95;3.53;;;10.50;99.90;;;;;;4975159;28;20175;-85
2023/05/29 00:12:42;;;;;;;6.93;3.67;;;10.80;99.90;;;;;;4973675;28;20269;-85
2023/05/29 00:15:10;;;;;;;9.80;3.90;;;10.50;99.90;;;;;;4973188;28;20266;-85
2023/05/29 00:17:35;;;;;;;6.15;3.40;;;10.50;99.90;;;;;;4974757;28;20198;-85
2023/05/29 00:20:11;;;;;;;7.30;3.65;;;10.20;99.90;;;;;;4957047;28;20696;-85
2023/05/29 00:22:37;;;;;;;13.70;4.47;;;10.40;99.90;;;;;;4974743;28;20158;-85
2023/05/29 00:25:07;;;;;;;10.07;4.18;;;10.00;99.90;;;;;;4974543;28;20175;-85
2023/05/29 00:27:33;;;;;;;8.23;3.45;;;10.10;99.90;;;;;;4973547;28;20214;-85
2023/05/29 00:30:00;;;;;;;10.05;3.75;;;10.40;99.90;;;;;;4974441;28;20181;-85
2023/05/29 00:32:27;;;;;;;7.53;4.40;;;10.30;99.90;;;;;;4973389;28;20182;-85
2023/05/29 00:34:53;;;;;;;8.35;4.45;;;10.00;99.90;;;;;;4975885;28;20556;-85
2023/05/29 00:37:21;;;;;;;8.20;3.70;;;10.40;99.90;;;;;;4978372;28;20217;-84
2023/05/29 00:39:47;;;;;;;8.82;4.32;;;10.20;99.90;;;;;;4978518;28;20178;-85
2023/05/29 00:42:13;;;;;;;10.55;4.18;;;10.00;99.90;;;;;;4977972;28;20187;-85
2023/05/29 00:44:38;;;;;;;15.15;4.10;;;10.00;99.90;;;;;;4976855;28;20551;-85
2023/05/29 00:47:04;;;;;;;11.52;4.65;;;10.10;99.90;;;;;;4976488;28;20245;-85
2023/05/29 00:49:30;;;;;;;9.80;3.83;;;;;;;;;;4961287;28;20278;-85
2023/05/29 00:51:56;;;;;;;9.40;4.43;;;10.20;99.90;;;;;;4978273;28;20253;-85
2023/05/29 00:54:26;;;;;;;9.40;3.75;;;10.00;99.90;;;;;;4979863;28;20183;-85
2023/05/29 00:56:52;;;;;;;11.30;4.18;;;10.00;99.90;;;;;;4978241;28;20171;-85
2023/05/29 00:59:21;;;;;;;13.85;4.22;;;9.90;99.90;;;;;;4976723;28;20699;-85
2023/05/29 01:01:50;;;;;;;10.38;3.95;;;9.90;99.90;;;;;;4988157;28;20179;-85
2023/05/29 01:04:17;;;;;;;8.10;3.92;;;10.10;99.90;;;;;;4976721;28;20189;-85
2023/05/29 01:06:43;;;;;;;10.20;3.65;;;9.80;99.90;;;;;;4978033;28;20262;-85
2023/05/29 01:09:10;;;;;;;6.30;3.65;;;9.80;99.90;;;;;;4977635;28;20524;-85
2023/05/29 01:12:10;;;;;;;8.65;4.15;;;9.80;99.90;;;;;;4978026;28;20178;-85
2023/05/29 01:15:09;;;;;;;17.65;5.07;;;9.80;99.90;;;;;;4978202;28;20647;-84
2023/05/29 01:18:08;;;;;;;12.05;4.05;;;9.70;99.90;;;;;;4977128;28;20214;-85
2023/05/29 01:20:47;;;;;;;10.45;3.92;;;9.70;99.90;;;;;;4977976;28;20174;-84
2023/05/29 01:23:31;;;;;;;15.23;4.35;;;9.60;99.90;;;;;;4977685;28;20171;-84
2023/05/29 01:26:00;;;;;;;8.80;4.30;;;9.80;99.90;;;;;;4977211;28;20198;-84
2023/05/29 01:28:30;;;;;;;7.00;3.70;;;9.60;99.90;;;;;;4976432;28;20186;-84
2023/05/29 01:30:58;;;;;;;8.60;3.38;;;9.60;99.90;;;;;;4977429;28;20175;-84
2023/05/29 01:33:25;;;;;;;6.10;3.38;;;9.60;99.90;;;;;;4978023;28;20265;-84
2023/05/29 01:35:51;;;;;;;10.43;4.00;;;9.50;99.90;;;;;;4979698;28;20201;-85
2023/05/29 01:38:17;;;;;;;14.85;3.75;;;;;;;;;;4983893;28;20206;-85
2023/05/29 01:40:43;;;;;;;8.23;3.90;;;9.50;99.90;;;;;;4985477;28;20182;-84
2023/05/29 01:43:09;;;;;;;9.05;3.42;;;9.50;99.90;;;;;;4986543;28;20186;-85
2023/05/29 01:45:36;;;;;;;6.85;3.80;;;9.50;99.90;;;;;;4980374;28;20274;-86
2023/05/29 01:48:02;;;;;;;10.10;4.35;;;9.30;99.90;;;;;;4959583;28;20261;-85
2023/05/29 01:50:29;;;;;;;7.22;3.53;;;9.30;99.90;;;;;;4977017;28;20233;-85
2023/05/29 01:52:54;;;;;;;7.78;3.58;;;9.40;99.90;;;;;;4960091;28;20194;-85
2023/05/29 01:55:20;;;;;;;7.78;4.30;;;9.40;99.90;;;;;;4975827;28;20186;-85
2023/05/29 01:57:47;;;;;;;7.10;3.97;;;9.40;99.90;;;;;;4976784;28;20210;-85
2023/05/29 02:00:16;;;;;;;9.32;3.47;;;9.30;99.90;;;;;;4976876;28;20180;-85
2023/05/29 02:02:42;;;;;;;6.82;3.60;;;9.30;99.90;;;;;;4977003;28;20651;-85
2023/05/29 02:05:08;;;;;;;7.95;4.32;;;9.30;99.90;;;;;;4959627;28;20187;-85
2023/05/29 02:07:36;;;;;;;7.40;4.03;;;9.20;99.90;;;;;;4975917;28;20190;-85
2023/05/29 02:10:03;;;;;;;8.20;3.55;;;9.20;99.90;;;;;;4976929;28;20198;-85
2023/05/29 02:12:29;;;;;;;10.18;3.35;;;9.20;99.90;;;;;;4991606;28;20620;-85
2023/05/29 02:14:55;;;;;;;8.57;4.32;;;;;;;;;;4976943;28;20174;-85
2023/05/29 02:17:21;;;;;;;11.45;3.67;;;9.20;99.90;;;;;;4976348;28;20252;-84
2023/05/29 02:19:47;;;;;;;7.17;3.80;;;9.10;99.90;;;;;;4975778;28;20648;-84
2023/05/29 02:22:13;;;;;;;10.10;4.10;;;;;;;;;;4976743;28;20186;-84
2023/05/29 02:24:38;;;;;;;9.77;3.67;;;9.10;99.90;;;;;;4976393;28;20183;-85
2023/05/29 02:27:04;;;;;;;14.07;3.93;;;9.60;99.90;;;;;;4976523;28;20187;-85
2023/05/29 02:29:30;;;;;;;9.03;3.60;;;9.10;99.90;;;;;;4975093;28;20191;-85
2023/05/29 02:31:55;;;;;;;4.77;3.60;;;9.20;99.90;;;;;;4975277;28;20183;-85
2023/05/29 02:34:24;;;;;;;9.88;3.45;;;9.10;99.90;;;;;;4975092;28;20218;-84
2023/05/29 02:36:51;;;;;;;10.20;3.97;;;9.40;99.90;;;;;;4975396;28;20197;-85
2023/05/29 02:39:18;;;;;;;9.05;4.00;;;9.50;99.90;;;;;;4976845;28;20183;-85
2023/05/29 02:41:44;;;;;;;7.57;3.50;;;;;;;;;;4976302;28;20190;-85
2023/05/29 02:44:10;;;;;;;8.02;2.63;;;;;;;;;;4988050;28;20186;-84
2023/05/29 02:46:35;;;;;;;8.85;4.30;;;9.20;99.90;;;;;;5000040;28;20230;-85
2023/05/29 02:49:01;;;;;;;10.18;3.40;;;;;;;;;;4970842;28;20183;-85
2023/05/29 02:51:27;;;;;;;10.63;3.45;;;9.00;99.90;;;;;;4976082;28;20233;-84
2023/05/29 02:53:53;;;;;;;6.60;3.70;;;;;;;;;;4976073;28;20206;-85
2023/05/29 02:56:23;;;;;;;7.07;3.70;;;8.90;99.90;;;;;;4976171;28;20191;-85
2023/05/29 02:58:52;;;;;;;9.38;3.00;;;9.30;99.90;;;;;;4975376;28;20593;-85
2023/05/29 03:01:18;;;;;;;7.03;3.47;;;9.00;99.90;;;;;;4974510;28;20662;-84
2023/05/29 03:03:43;;;;;;;5.33;3.13;;;8.90;99.90;;;;;;4975891;28;20214;-84
2023/05/29 03:06:12;;;;;;;6.47;3.42;;;;;;;;;;4958574;28;20233;-85
2023/05/29 03:08:41;;;;;;;5.55;3.00;;;9.20;99.90;;;;;;4975958;28;20269;-86
2023/05/29 03:11:12;;;;;;;7.63;2.80;;;8.90;99.90;;;;;;4975847;28;20217;-85
2023/05/29 03:13:38;;;;;;;6.93;3.28;;;9.40;99.90;;;;;;4974446;28;20210;-85
2023/05/29 03:16:04;;;;;;;8.80;4.50;;;9.10;99.90;;;;;;4975867;28;20706;-85
2023/05/29 03:18:30;;;;;;;5.03;3.55;;;;;;;;;;4975465;28;20300;-85
2023/05/29 03:20:56;;;;;;;7.53;3.08;;;9.60;99.90;;;;;;4976578;28;20183;-86
2023/05/29 03:23:22;;;;;;;7.93;3.47;;;9.60;99.90;;;;;;4975131;28;20289;-87
2023/05/29 03:25:48;;;;;;;5.40;2.90;;;;;;;;;;4975911;28;20628;-86
2023/05/29 03:28:14;;;;;;;10.10;4.07;;;9.40;99.90;;;;;;4979928;28;20245;-86
2023/05/29 03:30:39;;;;;;;7.30;3.15;;;9.80;99.90;;;;;;4972234;28;20186;-86
2023/05/29 03:33:05;;;;;;;6.55;3.47;;;9.70;99.90;;;;;;4987628;28;20182;-86
2023/05/29 03:35:31;;;;;;;4.68;2.80;;;;;;;;;;4979578;28;20194;-86
2023/05/29 03:37:57;;;;;;;10.98;3.55;;;;;;;;;;4955305;28;20261;-86
2023/05/29 03:40:23;;;;;;;5.78;2.95;;;10.30;99.90;;;;;;4951849;28;20289;-85
2023/05/29 03:42:49;;;;;;;6.63;3.33;;;;;;;;;;4937005;29;20737;-86
2023/05/29 03:45:15;;;;;;;5.68;2.97;;;10.20;99.90;;;;;;4953900;28;20660;-87
2023/05/29 03:47:41;;;;;;;6.97;3.05;;;10.10;99.90;;;;;;4952765;29;20270;-86
2023/05/29 03:50:07;;;;;;;9.40;3.08;;;10.60;99.90;;;;;;4953867;29;20273;-85
2023/05/29 03:52:33;;;;;;;4.22;2.92;;;10.70;99.90;;;;;;4953752;29;20191;-86
2023/05/29 03:54:59;;;;;;;9.35;3.25;;;10.50;99.90;;;;;;4953697;28;20191;-85
2023/05/29 03:57:26;;;;;;;6.22;3.53;;;10.80;99.90;;;;;;4953437;28;20223;-85
2023/05/29 03:59:51;;;;;;;6.07;2.92;;;10.70;99.90;;;;;;4953565;29;20194;-85
2023/05/29 04:02:17;;;;;;;6.97;2.75;;;;;;;;;;4953626;28;20205;-85
2023/05/29 04:04:43;;;;;;;9.25;3.08;;;11.20;99.90;;;;;;4968443;28;20211;-85
2023/05/29 04:07:09;;;;;;;9.30;2.47;;;;;;;;;;4969105;28;20215;-86
2023/05/29 04:09:35;;;;;;;5.18;3.22;;;11.20;99.90;;;;;;4967327;28;20226;-85
2023/05/29 04:12:05;;;;;;;4.55;2.90;;;11.20;99.90;;;;;;4921054;29;20211;-85
2023/05/29 04:14:31;;;;;;;4.47;2.42;;;11.30;99.90;;;;;;4949598;28;20262;-85
2023/05/29 04:16:56;;;;;;;5.22;2.72;;;11.40;99.90;;;;;;4953485;28;20638;-86
2023/05/29 04:19:22;;;;;;;4.50;2.38;;;11.50;99.90;;;;;;4967875;28;20238;-85
2023/05/29 04:21:48;;;;;;;2.92;2.10;;;;;;;;;;4952860;29;20179;-86
2023/05/29 04:24:14;;;;;;;7.28;2.58;;;12.10;99.90;;;;;;4969345;28;20247;-85
2023/05/29 04:26:41;;;;;;;4.80;3.25;;;11.80;99.90;;;;;;4952961;28;20179;-86
2023/05/29 04:29:08;;;;;;;5.05;2.78;;;12.10;99.90;;;;;;4951463;28;20577;-86
2023/05/29 04:31:36;;;;;;;3.22;2.25;;;12.20;99.90;;;;;;4951655;28;20233;-86
2023/05/29 04:34:04;;;;;;;4.65;3.05;;;12.50;99.90;;;;;;4950943;28;20188;-85
2023/05/29 04:36:32;;;;;;;5.93;3.00;;;12.40;99.90;;;;;;4963969;28;20182;-85
2023/05/29 04:38:58;;;;;;;4.53;2.35;;;12.50;99.90;;;;;;4952894;28;20220;-84
2023/05/29 04:41:29;;;;;;;3.45;2.13;;;12.70;99.90;;;;;;4952875;28;20274;-86
2023/05/29 04:43:56;;;;;;;5.18;2.33;;;12.80;99.90;;;;;;4952701;28;20711;-85
2023/05/29 04:46:22;;;;;;;7.97;2.63;;;12.70;99.90;;;;;;4923782;28;20539;-84
2023/05/29 04:48:48;;;;;;;4.60;1.60;;;13.10;99.90;;;;;;4959527;28;20245;-85
2023/05/29 04:51:14;;;;;;;5.03;2.25;;;;;;;;;;4957632;28;20286;-85
2023/05/29 04:53:41;;;;;;;3.83;1.90;;;;;;;;;;4956004;28;20223;-84
2023/05/29 04:56:07;;;;;;;7.75;2.10;;;13.50;99.90;;;;;;4952834;28;20179;-85
2023/05/29 04:58:32;;;;;;;4.00;2.17;;;13.50;99.90;;;;;;4934464;29;20211;-85
2023/05/29 05:00:59;;;;;;;5.55;1.88;;;13.70;99.90;;;;;;4952713;28;20195;-85
2023/05/29 05:03:25;;;;;;;6.22;1.85;;;13.90;99.90;;;;;;4964871;28;20214;-86
2023/05/29 05:05:51;;;;;;;4.70;2.58;;;14.00;99.90;;;;;;4939670;29;20184;-83
2023/05/29 05:08:17;;;;;;;4.43;1.95;;;14.10;99.90;;;;;;4954351;28;20187;-84
2023/05/29 05:10:43;;;;;;;8.75;1.80;;;14.30;99.90;;;;;;4954040;28;20191;-83
2023/05/29 05:13:11;;;;;;;3.08;1.58;;;14.50;99.90;;;;;;4952777;29;20228;-84
2023/05/29 05:15:36;;;;;;;7.47;1.90;;;14.80;99.90;;;;;;4953884;29;20329;-82
2023/05/29 05:18:02;;;;;;;6.95;1.63;;;14.90;99.90;;;;;;4971215;28;20656;-83
2023/05/29 05:20:28;;;;;;;5.20;1.80;;;15.00;99.90;;;;;;4973060;28;20194;-84
2023/05/29 05:22:53;;;;;;;3.47;1.83;;;15.00;99.90;;;;;;4975920;28;20178;-84
2023/05/29 05:25:19;;;;;;;9.48;1.75;;;15.20;99.90;;;;;;4975606;28;20238;-83
2023/05/29 05:27:45;;;;;;;2.50;1.40;;;;;;;;;;4959072;28;20190;-83
2023/05/29 05:30:11;;;;;;;2.53;1.40;;;15.30;99.90;;;;;;4973118;28;20183;-83
2023/05/29 05:32:37;;;;;;;1.55;1.15;;;15.60;99.90;;;;;;4956428;29;20267;-83
2023/05/29 05:35:03;;;;;;;3.20;1.70;;;15.80;99.90;;;;;;4973185;28;20278;-82
2023/05/29 05:37:34;;;;;;;2.67;1.48;;;15.90;99.60;;;;;;4956808;28;20306;-83
2023/05/29 05:40:00;;;;;;;6.60;1.70;;;15.90;99.50;;;;;;4956926;29;20246;-83
2023/05/29 05:42:26;;;;;;;1.92;1.50;;;16.00;98.80;;;;;;4956782;28;20179;-82
2023/05/29 05:44:52;;;;;;;2.45;1.60;;;16.10;97.90;;;;;;4956594;29;20256;-83
2023/05/29 05:47:18;;;;;;;3.20;1.83;;;16.20;96.50;;;;;;4957975;29;20231;-82
2023/05/29 05:49:43;;;;;;;3.22;2.03;;;16.30;95.30;;;;;;4972413;28;20199;-83
2023/05/29 05:52:09;;;;;;;4.63;1.90;;;16.50;97.10;;;;;;4972740;28;20187;-82
2023/05/29 05:54:35;;;;;;;14.27;2.38;;;16.60;97.40;;;;;;4972334;28;20207;-85
2023/05/29 05:57:01;;;;;;;1.40;1.30;;;16.90;97.00;;;;;;4957772;28;20660;-83
2023/05/29 05:59:26;;;;;;;7.20;2.10;;;;;;;;;;4972788;28;20196;-83
2023/05/29 06:01:52;;;;;;;1.92;1.50;;;17.00;94.50;;;;;;4956478;28;20601;-83
2023/05/29 06:04:18;;;;;;;2.85;1.30;;;17.10;95.40;;;;;;4956569;28;20319;-83
2023/05/29 06:06:44;;;;;;;3.50;1.70;;;17.20;91.80;;;;;;4956268;28;20210;-83
2023/05/29 06:09:11;;;;;;;2.53;1.35;;;17.00;90.80;;;;;;4957895;28;20266;-84
2023/05/29 06:11:37;;;;;;;7.60;4.03;;;17.10;93.30;;;;;;4956615;29;20632;-84
2023/05/29 06:14:03;;;;;;;4.05;2.15;;;17.20;92.00;;;;;;4957791;29;20235;-84
2023/05/29 06:16:29;;;;;;;2.80;1.38;;;17.30;91.60;;;;;;4958750;28;20266;-84
2023/05/29 06:18:55;;;;;;;1.27;1.10;;;17.40;91.20;;;;;;4958576;29;20205;-83
2023/05/29 06:21:21;;;;;;;3.85;1.35;;;17.60;94.20;;;;;;4969669;28;20251;-84
2023/05/29 06:23:47;;;;;;;2.90;1.83;;;17.80;95.10;;;;;;4996741;28;20195;-84
2023/05/29 06:26:13;;;;;;;2.88;1.52;;;17.90;91.40;;;;;;4968211;28;20191;-82
2023/05/29 06:28:39;;;;;;;4.07;2.28;;;18.00;91.60;;;;;;4972116;28;20198;-82
2023/05/29 06:31:05;;;;;;;3.80;1.27;;;;;;;;;;4955509;29;20648;-82
2023/05/29 06:33:31;;;;;;;2.63;1.40;;;;;;;;;;4957897;28;20192;-81
2023/05/29 06:35:56;;;;;;;3.22;1.92;;;18.40;92.60;;;;;;4965874;28;20206;-83
2023/05/29 06:38:22;;;;;;;2.28;1.25;;;18.50;90.50;;;;;;4981983;28;20675;-83
2023/05/29 06:40:47;;;;;;;4.70;1.23;;;18.60;90.10;;;;;;4960535;28;20675;-83
2023/05/29 06:43:13;;;;;;;1.92;1.40;;;18.70;88.90;;;;;;4963917;28;20187;-86
2023/05/29 06:45:40;;;;;;;3.08;1.05;;;;;;;;;;4948731;28;20715;-85
2023/05/29 06:48:06;;;;;;;7.40;1.38;;;18.80;87.50;;;;;;4967989;28;20229;-84
2023/05/29 06:50:32;;;;;;;4.47;2.13;;;18.90;88.30;;;;;;4967031;28;20183;-81
2023/05/29 06:52:57;;;;;;;4.70;2.72;;;18.90;80.20;;;;;;4947504;28;20180;-81
2023/05/29 06:55:23;;;;;;;2.25;1.40;;;;;;;;;;4963546;28;20180;-83
2023/05/29 06:57:49;;;;;;;1.08;0.95;;;19.10;77.80;;;;;;4947388;28;20302;-82
2023/05/29 07:00:15;;;;;;;4.07;1.10;;;19.20;77.80;;;;;;4971737;28;20266;-82
2023/05/29 07:02:40;;;;;;;5.68;1.20;;;19.30;76.60;;;;;;4974604;28;20190;-81
2023/05/29 07:05:07;;;;;;;1.40;1.30;;;19.40;75.80;;;;;;4974437;28;20179;-82
2023/05/29 07:07:32;;;;;;;1.85;1.52;;;19.50;76.10;;;;;;4975819;28;20187;-83
2023/05/29 07:09:58;;;;;;;3.05;1.80;;;19.50;76.90;;;;;;4974390;28;20241;-83
2023/05/29 07:12:24;;;;;;;7.07;3.03;;;19.60;75.80;;;;;;4990907;28;20198;-83
2023/05/29 07:14:49;;;;;;;5.03;1.98;;;19.60;74.50;;;;;;4975454;28;20252;-82
2023/05/29 07:17:15;;;;;;;2.13;1.38;;;19.70;72.90;;;;;;4973999;28;20639;-82
2023/05/29 07:19:41;;;;;;;3.08;1.48;;;19.60;75.10;;;;;;4974659;28;20590;-84
2023/05/29 07:22:06;;;;;;;1.58;1.08;;;19.70;69.80;;;;;;4975283;28;20190;-83
2023/05/29 07:24:32;;;;;;;2.35;1.40;;;19.80;65.00;;;;;;4974791;28;20183;-83
2023/05/29 07:26:58;;;;;;;3.80;1.50;;;20.00;65.30;;;;;;4974353;28;20652;-83
2023/05/29 07:29:24;;;;;;;9.30;3.60;;;20.10;65.30;;;;;;4975440;28;20182;-81
2023/05/29 07:31:51;;;;;;;1.15;1.00;;;20.20;65.10;;;;;;4973730;28;20218;-84
2023/05/29 07:34:16;;;;;;;4.03;1.70;;;20.10;67.60;;;;;;4974275;28;20226;-83
2023/05/29 07:37:03;;;;;;;2.95;1.27;;;20.20;66.10;;;;;;4974073;28;20178;-82
2023/05/29 07:39:30;;;;;;;4.47;1.88;;;20.30;63.60;;;;;;4974148;28;20542;-81
2023/05/29 07:41:55;;;;;;;1.85;1.42;;;20.40;60.60;;;;;;4975080;28;20651;-82
2023/05/29 07:44:21;;;;;;;1.48;1.15;;;20.40;64.20;;;;;;4989325;28;20184;-82
2023/05/29 07:46:47;;;;;;;2.13;1.65;;;20.50;64.70;;;;;;4973721;28;20782;-82
2023/05/29 07:49:13;;;;;;;1.17;1.08;;;20.60;63.80;;;;;;4957541;28;20201;-81
2023/05/29 07:51:39;;;;;;;3.22;1.00;;;20.70;59.80;;;;;;4975026;28;20209;-82
2023/05/29 07:54:05;;;;;;;2.10;1.25;;;20.60;57.90;;;;;;4973377;28;20520;-82
2023/05/29 07:56:33;;;;;;;5.10;2.83;;;20.50;58.50;;;;;;4974912;28;20643;-81
2023/05/29 07:58:59;;;;;;;3.30;1.38;;;20.60;60.70;;;;;;4973321;28;20202;-82
2023/05/29 08:01:26;;;;;;;1.90;1.42;;;20.80;59.20;;;;;;4957781;28;20186;-82
2023/05/29 08:03:51;;;;;;;2.22;1.30;;;21.00;59.30;;;;;;4974909;28;20722;-81
2023/05/29 08:06:17;;;;;;;2.08;1.27;;;21.20;59.90;;;;;;4973303;28;20217;-81
2023/05/29 08:08:43;;;;;;;2.28;1.00;;;21.30;59.20;;;;;;4974551;28;20301;-82
2023/05/29 08:11:09;;;;;;;1.65;1.00;;;21.40;56.70;;;;;;4974453;28;20182;-82
2023/05/29 08:13:35;;;;;;;2.70;1.10;;;21.30;56.10;;;;;;4974434;28;20183;-81
2023/05/29 08:16:01;;;;;;;2.00;1.00;;;21.40;56.30;;;;;;4973060;28;20191;-82
2023/05/29 08:18:26;;;;;;;1.38;1.02;;;21.40;56.70;;;;;;4974598;28;20253;-81
2023/05/29 08:20:52;;;;;;;2.65;1.35;;;21.50;55.40;;;;;;4957548;28;20636;-81
2023/05/29 08:23:18;;;;;;;1.52;0.85;;;21.50;56.20;;;;;;4974389;28;20635;-82
2023/05/29 08:25:45;;;;;;;2.85;1.08;;;;;;;;;;4974631;28;20584;-83
2023/05/29 08:28:10;;;;;;;1.85;1.10;;;21.60;55.60;;;;;;4973117;28;20185;-83
2023/05/29 08:30:37;;;;;;;1.42;0.98;;;21.70;55.70;;;;;;4974565;28;20186;-83
2023/05/29 08:33:03;;;;;;;2.97;1.42;;;21.80;57.80;;;;;;4956992;28;20174;-83
2023/05/29 08:35:29;;;;;;;3.85;1.08;;;;;;;;;;4974393;28;20655;-83
2023/05/29 08:37:55;;;;;;;2.75;1.30;;;21.70;56.90;;;;;;4974416;28;20289;-82
2023/05/29 08:40:21;;;;;;;2.05;1.00;;;21.60;55.70;;;;;;4974245;28;20269;-83
2023/05/29 08:42:50;;;;;;;5.40;1.20;;;21.60;53.90;;;;;;4989339;28;20241;-82
2023/05/29 08:45:21;;;;;;;1.95;1.10;;;21.60;54.50;;;;;;4974082;28;20179;-83
2023/05/29 08:47:51;;;;;;;1.55;0.88;;;21.60;56.70;;;;;;4990250;28;20245;-83
2023/05/29 08:50:19;;;;;;;3.03;1.05;;;21.60;55.00;;;;;;4974152;28;20166;-83
2023/05/29 08:52:44;;;;;;;4.30;1.10;;;21.60;54.70;;;;;;4975120;28;20178;-83
2023/05/29 08:55:10;;;;;;;4.65;0.85;;;21.70;54.80;;;;;;4957332;28;20220;-83
2023/05/29 08:57:38;;;;;;;2.67;1.10;;;21.60;53.40;;;;;;4993234;28;20286;-83
2023/05/29 09:00:12;;;;;;;2.33;1.40;;;21.60;55.10;;;;;;4978323;28;20640;-83
2023/05/29 09:02:38;;;;;;;5.82;1.02;;;;;;;;;;4964246;28;20193;-83
2023/05/29 09:05:06;;;;;;;1.63;0.85;;;22.00;54.20;;;;;;4977136;28;20187;-83
2023/05/29 09:07:32;;;;;;;3.03;2.10;;;22.10;55.10;;;;;;4961641;28;20186;-82
2023/05/29 09:10:00;;;;;;;1.77;0.90;;;22.10;54.60;;;;;;4979030;28;20198;-83
2023/05/29 09:12:26;;;;;;;0.75;0.75;;;22.10;52.20;;;;;;4978188;28;20189;-83
2023/05/29 09:14:52;;;;;;;1.75;1.20;;;21.90;53.30;;;;;;4977987;28;20175;-83
2023/05/29 09:17:17;;;;;;;1.77;0.98;;;21.60;51.80;;;;;;4976480;28;20230;-83
2023/05/29 09:19:44;;;;;;;2.30;1.20;;;21.60;56.80;;;;;;4978035;28;20222;-83
2023/05/29 09:22:16;;;;;;;2.00;1.13;;;21.40;54.00;;;;;;4978483;28;20185;-83
2023/05/29 09:24:45;;;;;;;2.15;1.20;;;21.50;55.30;;;;;;4978790;28;20588;-83
2023/05/29 09:27:14;;;;;;;5.68;1.48;;;21.70;52.90;;;;;;4975181;28;20194;-83
2023/05/29 09:29:41;;;;;;;1.88;1.33;;;21.80;53.20;;;;;;4975988;28;20186;-83
2023/05/29 09:32:12;;;;;;;1.45;1.10;;;22.00;55.40;;;;;;4977474;28;20179;-83
2023/05/29 09:34:39;;;;;;;1.67;1.10;;;22.40;55.30;;;;;;4968947;28;20182;-83
2023/05/29 09:37:09;;;;;;;1.33;1.17;;;22.50;51.30;;;;;;4965738;28;20214;-83
2023/05/29 09:39:42;;;;;;;2.17;1.08;;;22.20;51.80;;;;;;4969366;28;20983;-83
2023/05/29 09:42:08;;;;;;;1.55;1.10;;;22.20;52.60;;;;;;4963947;28;20176;-84
2023/05/29 09:44:34;;;;;;;2.22;1.33;;;22.30;51.30;;;;;;4957791;28;20179;-83
2023/05/29 09:47:00;;;;;;;2.10;1.55;;;21.50;58.00;;;;;;4961268;28;20729;-84
2023/05/29 09:49:27;;;;;;;2.75;1.00;;;21.70;50.80;;;;;;4976005;28;20179;-83
2023/05/29 09:51:59;;;;;;;3.75;1.40;;;21.40;51.00;;;;;;4977369;28;20190;-83
2023/05/29 10:23:01;;;;;;;2.22;1.60;;;23.60;52.60;;;;;;5883073;23;20607;-85
2023/05/29 10:25:29;;;;;;;3.22;1.20;;;23.70;51.70;;;;;;4997045;28;20186;-82
2023/05/29 10:27:56;;;;;;;1.90;1.30;;;23.70;52.30;;;;;;4997263;28;20178;-82
2023/05/29 10:30:49;;;;;;;1.60;0.85;;;23.70;50.10;;;;;;4979240;28;20245;-82
2023/05/29 10:33:41;;;;;;;2.47;1.20;;;23.70;52.80;;;;;;4997222;28;20166;-82
2023/05/29 10:36:14;;;;;;;3.60;1.40;;;23.70;51.90;;;;;;5011770;28;20182;-82
2023/05/29 10:38:45;;;;;;;1.95;1.50;;;23.80;50.30;;;;;;4978621;28;20720;-85
2023/05/29 10:41:26;;;;;;;0.98;0.88;;;23.90;50.10;;;;;;4996229;28;20196;-82
2023/05/29 10:43:55;;;;;;;2.50;1.02;;;23.70;48.10;;;;;;4996094;28;20178;-84
2023/05/29 10:46:41;;;;;;;2.33;1.20;;;23.60;49.80;;;;;;4996166;28;20174;-84
2023/05/29 10:49:18;;;;;;;5.13;1.10;;;23.60;54.00;;;;;;4995501;28;20208;-84
2023/05/29 10:51:44;;;;;;;10.32;2.58;;;23.80;50.70;;;;;;4995867;28;20174;-84
2023/05/29 10:54:10;;;;;;;1.65;1.17;;;;;;;;;;4978386;28;20184;-84
2023/05/29 10:56:37;;;;;;;2.28;1.00;;;24.20;50.40;;;;;;4978645;28;20182;-81
2023/05/29 10:59:03;;;;;;;4.00;1.27;;;24.30;51.60;;;;;;5011032;28;20658;-84
2023/05/29 11:01:30;;;;;;;6.93;1.00;;;24.30;51.80;;;;;;5010564;28;20190;-84
2023/05/29 11:04:17;;;;;;;1.58;1.20;;;24.10;50.00;;;;;;4995454;28;20173;-84
2023/05/29 11:06:44;;;;;;;1.67;1.10;;;24.00;51.30;;;;;;4995485;28;20182;-85
2023/05/29 11:09:34;;;;;;;3.08;1.30;;;24.10;52.30;;;;;;4995863;28;20220;-84
2023/05/29 11:12:33;;;;;;;1.85;1.02;;;24.20;51.50;;;;;;4995338;28;20205;-84
2023/05/29 11:15:06;;;;;;;4.65;1.20;;;24.00;50.00;;;;;;4995241;28;20155;-84
2023/05/29 11:17:38;;;;;;;2.53;1.10;;;23.60;52.20;;;;;;4977793;28;20368;-84
2023/05/29 11:20:14;;;;;;;1.52;1.20;;;23.50;53.50;;;;;;4994767;28;20185;-84
2023/05/29 11:22:48;;;;;;;1.30;1.20;;;23.60;52.80;;;;;;4995046;28;20249;-84
2023/05/29 11:25:15;;;;;;;2.25;1.25;;;23.80;51.30;;;;;;4995218;28;20181;-84
2023/05/29 11:27:44;;;;;;;3.03;1.50;;;23.90;52.10;;;;;;4996610;28;20187;-82
2023/05/29 11:30:11;;;;;;;3.13;1.48;;;24.10;51.70;;;;;;4996170;28;20166;-82
2023/05/29 11:32:41;;;;;;;2.30;1.40;;;24.20;51.90;;;;;;4996233;28;20272;-81
2023/05/29 11:35:12;;;;;;;1.33;1.00;;;24.20;52.40;;;;;;4994921;28;20181;-82
2023/05/29 11:37:39;;;;;;;5.00;1.10;;;24.20;52.10;;;;;;4995153;28;20205;-81
2023/05/29 11:40:09;;;;;;;1.48;1.38;;;24.20;49.30;;;;;;4996066;28;20177;-84
2023/05/29 11:42:45;;;;;;;2.00;1.17;;;23.60;48.80;;;;;;4994951;28;20181;-84
2023/05/29 11:45:11;;;;;;;3.58;1.50;;;23.30;50.60;;;;;;5010015;28;20181;-85
2023/05/29 11:47:59;;;;;;;4.00;1.20;;;23.40;50.80;;;;;;4995026;28;20186;-86
2023/05/29 11:50:30;;;;;;;4.00;1.30;;;23.70;51.10;;;;;;4995279;28;20503;-85
2023/05/29 11:52:57;;;;;;;4.22;1.75;;;23.80;48.90;;;;;;4978129;28;20170;-82
2023/05/29 11:55:23;;;;;;;2.33;1.30;;;;;;;;;;4995139;28;20184;-85
2023/05/29 11:57:51;;;;;;;2.15;1.48;;;24.30;51.20;;;;;;4977762;28;20210;-84
2023/05/29 12:00:18;;;;;;;3.45;1.88;;;24.30;51.70;;;;;;4994546;28;20178;-84
2023/05/29 12:02:46;;;;;;;2.28;1.40;;;;;;;;;;4995054;28;20182;-84
2023/05/29 12:05:14;;;;;;;4.20;1.90;;;24.60;52.50;;;;;;4994920;28;20182;-85
2023/05/29 12:07:53;;;;;;;2.15;1.50;;;24.90;51.20;;;;;;4995037;28;20189;-85
2023/05/29 12:10:20;;;;;;;9.55;1.75;;;24.90;48.90;;;;;;4977348;28;20622;-85
2023/05/29 12:12:59;;;;;;;4.18;1.33;;;24.90;49.30;;;;;;4994331;28;20252;-85
2023/05/29 12:15:25;;;;;;;4.20;1.55;;;;;;;;;;4994524;28;20178;-84
2023/05/29 12:17:53;;;;;;;2.17;1.60;;;25.00;50.00;;;;;;4994100;28;20213;-85
2023/05/29 12:20:20;;;;;;;4.20;1.30;;;24.90;50.00;;;;;;4977235;28;20174;-84
2023/05/29 12:22:46;;;;;;;1.98;1.35;;;;;;;;;;4993864;28;20212;-85
2023/05/29 12:25:16;;;;;;;1.98;1.50;;;24.50;45.10;;;;;;4976822;28;20174;-84
2023/05/29 12:27:43;;;;;;;13.32;3.83;;;24.20;47.50;;;;;;4993870;28;20174;-85
2023/05/29 12:30:20;;;;;;;3.67;1.30;;;24.20;48.60;;;;;;4993614;28;20186;-85
2023/05/29 12:32:48;;;;;;;1.40;1.10;;;24.20;49.30;;;;;;4994161;28;20305;-85
2023/05/29 12:35:15;;;;;;;2.13;1.33;;;23.90;48.10;;;;;;4993993;28;20177;-83
2023/05/29 12:38:01;;;;;;;1.63;1.17;;;23.70;47.80;;;;;;4976681;28;20288;-84
2023/05/29 12:40:29;;;;;;;3.60;1.65;;;23.80;47.50;;;;;;4976816;28;20185;-84
2023/05/29 12:42:57;;;;;;;1.35;1.25;;;23.80;47.40;;;;;;4993923;28;20178;-84
2023/05/29 12:45:28;;;;;;;2.47;1.20;;;23.60;46.80;;;;;;4976614;28;20546;-84
2023/05/29 12:47:56;;;;;;;3.33;1.33;;;23.60;48.70;;;;;;5008822;28;20193;-84
2023/05/29 12:50:26;;;;;;;1.50;1.13;;;24.00;48.30;;;;;;4993760;28;20174;-83
2023/05/29 12:52:56;;;;;;;1.80;1.38;;;23.80;46.50;;;;;;4960295;28;20186;-83
2023/05/29 12:55:22;;;;;;;5.20;1.52;;;23.80;47.80;;;;;;4993861;28;20178;-83
2023/05/29 12:57:47;;;;;;;2.00;1.40;;;24.20;48.40;;;;;;4993808;28;20208;-83
2023/05/29 13:00:14;;;;;;;3.42;1.92;;;24.30;50.80;;;;;;4993429;28;20182;-83
2023/05/29 13:02:40;;;;;;;4.05;1.42;;;24.50;49.40;;;;;;4976341;28;20224;-83
2023/05/29 13:05:06;;;;;;;3.35;1.27;;;24.40;47.80;;;;;;4993513;28;20190;-83
2023/05/29 13:07:33;;;;;;;1.75;1.40;;;24.60;47.30;;;;;;4976346;28;20186;-83
2023/05/29 13:10:00;;;;;;;3.75;1.35;;;24.70;46.70;;;;;;4993382;28;20688;-84
2023/05/29 13:12:26;;;;;;;1.65;1.30;;;24.90;47.70;;;;;;4976742;28;20197;-83
2023/05/29 13:14:52;;;;;;;3.33;1.50;;;25.00;46.40;;;;;;4994819;28;20642;-84
2023/05/29 13:17:17;;;;;;;3.45;1.25;;;24.90;46.30;;;;;;4977505;28;20596;-84
2023/05/29 13:19:43;;;;;;;2.08;1.40;;;25.10;48.40;;;;;;4993699;28;20188;-84
2023/05/29 13:22:09;;;;;;;2.35;1.17;;;;;;;;;;4993851;28;20214;-84
2023/05/29 13:24:35;;;;;;;1.25;0.90;;;;;;;;;;4976644;28;20307;-84
2023/05/29 13:27:02;;;;;;;1.98;1.40;;;24.70;47.00;;;;;;4993618;28;20698;-85
2023/05/29 13:29:27;;;;;;;1.95;1.40;;;25.00;47.80;;;;;;4977296;28;20261;-84
2023/05/29 13:31:53;;;;;;;3.42;1.60;;;24.70;46.30;;;;;;4994293;28;20226;-85